Time;durP1;ratioP1;P1;durP2;ratioP2;P2;SDS_P1;SDS_P2;PMS_P1;PMS_P2;Temp;Humidity;BMP_temperature;BMP_pressure;BME280_temperature;BME280_humidity;BME280_pressure;Samples;Min_cycle;Max_cycle;Signal;HPM_P1;HPM_P2
2022/05/27 00:00:54;;;;;;;3.20;0.63;;;;;;;26.39;51.15;100902.16;5029310;28;20121;-72
2022/05/27 00:03:20;;;;;;;2.85;0.80;;;;;;;26.39;51.33;100907.50;5024826;28;20037;-74
2022/05/27 00:05:50;;;;;;;1.77;0.60;;;;;;;26.40;51.22;100900.31;5025096;28;20138;-72
2022/05/27 00:08:16;;;;;;;3.28;0.80;;;;;;;26.39;51.15;100896.00;5023286;28;21146;-72
2022/05/27 00:10:42;;;;;;;2.72;0.65;;;;;;;26.39;51.33;100901.34;5023600;28;20911;-72
2022/05/27 00:13:08;;;;;;;1.40;0.50;;;;;;;26.39;51.27;100898.69;5025816;28;20597;-71
2022/05/27 00:15:33;;;;;;;3.55;0.60;;;;;;;26.38;51.15;100903.22;5032803;28;20033;-74
2022/05/27 00:17:59;;;;;;;2.15;0.63;;;;;;;26.38;51.29;100899.75;5024057;28;20333;-73
2022/05/27 00:20:24;;;;;;;1.52;0.65;;;;;;;26.36;51.04;100904.50;5025342;28;20041;-74
2022/05/27 00:22:50;;;;;;;2.95;1.10;;;;;;;26.36;51.20;100902.66;5023485;28;20498;-74
2022/05/27 00:25:15;;;;;;;2.08;0.70;;;;;;;26.37;51.12;100914.16;5023865;28;20029;-75
2022/05/27 00:27:40;;;;;;;2.13;0.80;;;;;;;26.37;51.24;100908.81;5022746;28;20453;-74
2022/05/27 00:30:09;;;;;;;1.45;0.60;;;;;;;26.37;51.25;100906.13;5024783;28;20136;-75
2022/05/27 00:32:37;;;;;;;1.65;0.60;;;;;;;26.38;51.19;100905.88;5026829;28;20138;-74
2022/05/27 00:35:03;;;;;;;1.02;0.50;;;;;;;26.38;51.11;100907.75;5028932;28;20507;-73
2022/05/27 00:37:28;;;;;;;2.20;0.47;;;;;;;26.38;51.22;100903.22;5029738;28;20040;-73
2022/05/27 00:39:55;;;;;;;1.75;0.60;;;;;;;26.41;51.22;100904.59;5023714;28;20059;-73
2022/05/27 00:42:21;;;;;;;3.78;0.70;;;;;;;26.40;50.99;100901.13;5030270;28;20210;-74
2022/05/27 00:44:46;;;;;;;1.38;0.68;;;;;;;26.41;51.15;100893.91;5026957;28;20032;-74
2022/05/27 00:47:15;;;;;;;1.85;0.70;;;;;;;26.41;51.13;100886.72;5029724;28;21414;-75
2022/05/27 00:49:46;;;;;;;1.15;0.43;;;;;;;26.41;51.16;100885.91;5035473;28;20029;-73
2022/05/27 00:52:14;;;;;;;1.70;0.45;;;;;;;26.42;51.01;100890.19;5027257;28;20489;-73
2022/05/27 00:54:41;;;;;;;1.38;0.60;;;;;;;26.41;51.23;100885.91;5027707;28;20182;-72
2022/05/27 00:57:17;;;;;;;3.78;0.60;;;;;;;26.40;51.12;100882.41;5027242;28;20128;-73
2022/05/27 00:59:51;;;;;;;2.00;0.63;;;;;;;26.40;51.21;100878.94;5026975;28;20139;-74
2022/05/27 01:02:18;;;;;;;4.18;0.98;;;;;;;26.41;51.13;100885.91;5032911;28;20032;-74
2022/05/27 01:04:44;;;;;;;1.30;0.52;;;;;;;26.41;51.37;100884.03;5027121;28;20775;-74
2022/05/27 01:07:10;;;;;;;1.77;0.80;;;;;;;26.41;51.35;100875.22;5027108;28;20201;-73
2022/05/27 01:09:39;;;;;;;1.50;0.55;;;;;;;26.42;51.11;100879.50;5026521;28;20120;-72
2022/05/27 01:12:44;;;;;;;1.40;0.60;;;;;;;26.38;51.37;100873.03;5027649;28;21579;-75
2022/05/27 01:15:19;;;;;;;3.17;0.60;;;;;;;26.40;51.24;100884.28;5028244;28;20037;-73
2022/05/27 01:17:51;;;;;;;1.67;0.75;;;;;;;26.39;51.08;100882.66;5031748;28;20037;-72
2022/05/27 01:20:21;;;;;;;2.65;0.50;;;;;;;26.40;51.22;100881.63;5031914;28;20036;-72
2022/05/27 01:23:20;;;;;;;1.92;0.70;;;;;;;26.38;51.16;100876.50;5026283;28;20147;-74
2022/05/27 01:26:04;;;;;;;3.13;0.70;;;;;;;26.37;51.20;100871.41;5027492;28;21322;-71
2022/05/27 01:28:42;;;;;;;1.73;0.68;;;;;;;26.38;51.25;100868.50;5029335;28;20040;-74
2022/05/27 01:31:25;;;;;;;1.85;0.60;;;;;;;26.38;51.28;100857.81;5026287;28;20049;-73
2022/05/27 01:34:06;;;;;;;3.75;0.60;;;;;;;26.39;51.15;100866.63;5030264;28;20575;-72
2022/05/27 01:37:01;;;;;;;2.42;0.60;;;;;;;26.40;51.24;100866.41;5030650;28;20043;-75
2022/05/27 01:39:43;;;;;;;1.45;0.60;;;;;;;26.40;51.22;100865.59;5031251;28;20040;-74
2022/05/27 01:42:21;;;;;;;1.15;0.50;;;;;;;26.42;51.14;100863.50;5035195;28;20044;-72
2022/05/27 01:45:01;;;;;;;2.35;0.70;;;;;;;26.41;51.01;100864.53;5048681;28;20055;-74
2022/05/27 01:47:46;;;;;;;2.60;0.55;;;;;;;26.39;50.95;100863.97;5043006;28;20524;-76
2022/05/27 01:50:35;;;;;;;1.85;0.40;;;;;;;26.41;51.07;100860.00;5037854;28;20573;-73
2022/05/27 01:53:07;;;;;;;1.02;0.50;;;;;;;26.40;51.29;100858.38;5002460;28;20333;-73
2022/05/27 01:56:01;;;;;;;1.67;0.40;;;;;;;26.40;50.88;100862.91;5029106;28;20044;-74
2022/05/27 01:58:37;;;;;;;1.17;0.50;;;;;;;26.38;51.15;100852.47;5015155;28;20405;-74
2022/05/27 02:01:05;;;;;;;0.90;0.50;;;;;;;26.39;51.31;100854.09;5029995;28;20028;-72
2022/05/27 02:03:37;;;;;;;1.60;0.50;;;;;;;26.38;50.98;100848.97;5031206;28;20597;-73
2022/05/27 02:06:08;;;;;;;1.58;0.40;;;;;;;26.38;50.97;100857.81;5027231;28;20047;-74
2022/05/27 02:08:45;;;;;;;2.15;0.75;;;;;;;26.37;51.18;100860.72;5028608;28;20033;-73
2022/05/27 02:11:17;;;;;;;3.22;0.50;;;;;;;26.38;51.13;100857.00;5026264;28;20037;-74
2022/05/27 02:13:55;;;;;;;0.93;0.40;;;;;;;26.36;51.08;100859.09;5026548;28;20401;-72
2022/05/27 02:16:35;;;;;;;1.25;0.57;;;;;;;26.37;51.03;100855.38;5025754;28;20041;-75
2022/05/27 02:19:19;;;;;;;1.77;0.40;;;;;;;26.36;51.06;100856.41;5030468;28;20035;-74
2022/05/27 02:21:56;;;;;;;2.85;0.60;;;;;;;26.34;51.01;100848.66;5030685;28;20354;-73
2022/05/27 02:24:36;;;;;;;1.02;0.57;;;;;;;26.34;51.12;100845.16;5025884;28;20102;-73
2022/05/27 02:27:10;;;;;;;2.35;0.50;;;;;;;26.34;51.11;100829.13;5025330;28;20177;-73
2022/05/27 02:29:37;;;;;;;0.88;0.40;;;;;;;26.33;51.05;100833.66;5025007;28;20035;-74
2022/05/27 02:32:29;;;;;;;1.95;0.60;;;;;;;26.31;51.08;100841.13;5026421;28;20044;-72
2022/05/27 02:35:08;;;;;;;2.70;0.65;;;;;;;26.30;50.94;100831.44;5032286;28;20039;-73
2022/05/27 02:37:36;;;;;;;1.50;0.60;;;;;;;26.30;50.80;100839.47;5025940;28;20504;-73
2022/05/27 02:40:06;;;;;;;1.38;0.50;;;;;;;26.32;50.88;100844.59;5026175;28;20612;-73
2022/05/27 02:42:40;;;;;;;1.33;0.60;;;;;;;26.31;50.93;100832.28;5030650;28;20035;-73
2022/05/27 02:45:17;;;;;;;2.45;0.80;;;;;;;26.30;50.68;100830.63;5025353;28;20429;-72
2022/05/27 02:47:46;;;;;;;0.98;0.40;;;;;;;26.31;50.74;100830.44;5026110;28;20049;-73
2022/05/27 02:50:19;;;;;;;0.93;0.40;;;;;;;26.30;50.94;100834.13;5031286;28;20074;-72
2022/05/27 02:53:01;;;;;;;3.60;0.70;;;;;;;26.30;50.63;100830.63;5031180;28;20496;-73
2022/05/27 02:55:43;;;;;;;0.98;0.60;;;;;;;26.31;50.76;100829.63;5024164;28;20032;-72
2022/05/27 02:58:09;;;;;;;1.23;0.40;;;;;;;26.30;50.95;100828.78;5025720;28;20915;-75
2022/05/27 03:00:36;;;;;;;2.33;0.50;;;;;;;26.31;50.84;100822.41;5025463;28;20816;-72
2022/05/27 03:03:02;;;;;;;1.40;0.47;;;;;;;26.31;50.90;100824.28;5030710;28;20104;-74
2022/05/27 03:05:40;;;;;;;1.60;0.50;;;;;;;26.30;50.93;100818.09;5293751;23;20052;-73
2022/05/27 03:08:23;;;;;;;1.15;0.60;;;;;;;26.30;50.91;100820.75;5043921;28;20041;-75
2022/05/27 03:10:51;;;;;;;3.80;0.63;;;;;;;26.30;50.86;100817.28;5050258;28;20033;-73
2022/05/27 03:13:41;;;;;;;1.85;0.55;;;;;;;26.30;50.81;100819.94;5049895;28;20040;-73
2022/05/27 03:16:24;;;;;;;1.25;0.50;;;;;;;26.30;50.81;100817.28;5049488;28;20548;-71
2022/05/27 03:19:19;;;;;;;1.17;0.60;;;;;;;26.28;50.67;100811.38;5048993;28;20025;-72
2022/05/27 03:22:01;;;;;;;1.80;0.57;;;;;;;26.27;50.88;100815.91;5049193;28;20381;-73
2022/05/27 03:25:04;;;;;;;0.80;0.40;;;;;;;26.27;50.75;100813.22;5049249;28;20345;-71
2022/05/27 03:27:35;;;;;;;3.03;0.63;;;;;;;26.27;50.96;100802.53;5049353;28;20028;-72
2022/05/27 03:30:14;;;;;;;1.88;0.60;;;;;;;26.29;50.85;100808.47;5049608;28;20611;-71
2022/05/27 03:32:52;;;;;;;2.78;0.40;;;;;;;26.28;50.72;100806.03;5049318;28;20055;-72
2022/05/27 03:35:42;;;;;;;2.88;0.73;;;;;;;26.28;50.81;100806.84;5049545;28;20159;-72
2022/05/27 03:38:15;;;;;;;1.95;0.70;;;;;;;26.28;50.80;100812.19;5049166;28;20024;-71
2022/05/27 03:41:06;;;;;;;2.97;0.50;;;;;;;26.28;50.76;100806.84;5048934;28;20037;-72
2022/05/27 03:43:34;;;;;;;3.22;0.50;;;;;;;26.30;50.68;100806.59;5048913;28;20040;-71
2022/05/27 03:46:00;;;;;;;1.63;0.60;;;;;;;26.29;50.78;100799.63;5048966;28;20417;-70
2022/05/27 03:48:30;;;;;;;1.60;0.73;;;;;;;26.31;50.80;100798.38;5048812;28;20032;-72
2022/05/27 03:51:15;;;;;;;2.28;0.40;;;;;;;26.30;50.85;100796.72;5048527;28;20480;-72
2022/05/27 03:56:25;;;;;;;2.05;0.40;;;;;;;26.26;50.90;100800.91;5048363;28;19987;-70
2022/05/27 03:58:50;;;;;;;1.95;0.50;;;;;;;26.31;50.91;100795.72;5048821;28;20037;-70
2022/05/27 04:01:22;;;;;;;2.45;0.65;;;;;;;26.32;50.85;100793.84;5048430;28;20449;-71
2022/05/27 04:03:47;;;;;;;1.35;0.40;;;;;;;26.34;50.69;100797.09;5048091;28;20032;-71
2022/05/27 04:06:13;;;;;;;1.33;0.43;;;;;;;26.35;50.76;100796.03;5047841;28;20052;-70
2022/05/27 04:08:38;;;;;;;2.70;0.57;;;;;;;26.35;50.67;100791.50;5047989;28;20433;-73
2022/05/27 04:11:03;;;;;;;2.42;0.77;;;;;;;26.36;50.71;100795.00;5048082;28;20107;-72
2022/05/27 04:13:29;;;;;;;0.93;0.45;;;;;;;26.36;50.78;100795.00;5048172;28;20029;-71
2022/05/27 04:15:54;;;;;;;3.10;0.70;;;;;;;26.36;50.70;100795.00;5048449;28;20441;-73
2022/05/27 04:18:19;;;;;;;1.38;0.60;;;;;;;26.36;50.61;100789.66;5048603;28;20472;-72
2022/05/27 04:20:45;;;;;;;1.88;0.65;;;;;;;26.37;50.73;100785.94;5048406;28;20100;-72
2022/05/27 04:23:11;;;;;;;1.48;0.60;;;;;;;26.35;50.74;100788.03;5048573;28;20108;-73
2022/05/27 04:25:38;;;;;;;1.65;0.60;;;;;;;26.35;50.58;100785.34;5051487;28;20032;-70
2022/05/27 04:28:04;;;;;;;1.90;0.40;;;;;;;26.34;50.57;100784.53;5053012;28;20049;-73
2022/05/27 04:30:29;;;;;;;1.85;0.63;;;;;;;26.34;50.58;100778.38;5053275;28;20068;-69
2022/05/27 04:32:54;;;;;;;1.23;0.40;;;;;;;26.34;50.67;100781.06;5052695;28;20453;-72
2022/05/27 04:35:20;;;;;;;2.20;0.50;;;;;;;26.33;50.70;100777.56;5053315;28;20169;-72
2022/05/27 04:37:45;;;;;;;0.80;0.45;;;;;;;26.33;50.68;100779.44;5052143;28;20465;-72
2022/05/27 04:40:11;;;;;;;2.45;0.40;;;;;;;26.32;50.69;100786.66;5052111;28;20116;-73
2022/05/27 04:42:37;;;;;;;1.48;0.40;;;;;;;26.32;50.50;100780.50;5052104;28;20036;-72
2022/05/27 04:45:03;;;;;;;1.40;0.40;;;;;;;26.32;50.65;100783.16;5052327;28;20033;-71
2022/05/27 04:47:29;;;;;;;1.80;0.50;;;;;;;26.31;50.84;100776.19;5052243;28;20326;-72
2022/05/27 04:49:54;;;;;;;2.30;0.40;;;;;;;26.31;50.63;100771.66;5052037;28;20112;-73
2022/05/27 04:52:31;;;;;;;2.08;0.50;;;;;;;26.29;50.63;100775.59;5051986;28;20033;-71
2022/05/27 04:55:01;;;;;;;2.25;0.73;;;;;;;26.31;50.65;100778.88;5051873;28;20025;-71
2022/05/27 04:57:33;;;;;;;2.08;0.40;;;;;;;26.31;50.66;100776.19;5052207;28;20033;-73
2022/05/27 05:00:01;;;;;;;1.95;0.60;;;;;;;26.31;50.65;100776.19;5052322;28;20070;-74
2022/05/27 05:02:26;;;;;;;1.23;0.63;;;;;;;26.31;50.70;100773.53;5051943;28;20037;-72
2022/05/27 05:04:52;;;;;;;2.60;0.70;;;;;;;26.32;50.63;100780.50;5051445;28;20025;-70
2022/05/27 05:07:21;;;;;;;3.22;0.80;;;;;;;26.32;50.66;100791.19;5051185;28;20045;-72
2022/05/27 05:09:46;;;;;;;3.20;0.77;;;;;;;26.31;50.73;100785.03;5051879;28;20055;-74
2022/05/27 05:12:12;;;;;;;1.95;0.50;;;;;;;26.31;50.30;100792.22;5051721;28;20428;-72
2022/05/27 05:14:39;;;;;;;2.53;0.65;;;;;;;26.31;50.37;100800.22;5051497;28;20025;-73
2022/05/27 05:17:05;;;;;;;0.95;0.50;;;;;;;26.30;50.36;100811.94;5051797;28;20128;-71
2022/05/27 05:19:30;;;;;;;0.80;0.50;;;;;;;26.30;50.38;100803.94;5051877;28;20143;-72
2022/05/27 05:21:55;;;;;;;3.72;0.70;;;;;;;26.29;50.25;100810.31;5051999;28;20033;-71
2022/05/27 05:24:21;;;;;;;1.52;0.57;;;;;;;26.29;50.23;100816.47;5051419;28;20053;-71
2022/05/27 05:26:47;;;;;;;2.22;0.77;;;;;;;26.29;50.21;100807.66;5051736;28;20052;-71
2022/05/27 05:29:13;;;;;;;3.42;0.50;;;;;;;26.29;50.13;100816.47;5051374;28;20432;-70
2022/05/27 05:31:38;;;;;;;1.90;0.70;;;;;;;26.29;50.29;100821.00;5051291;28;20215;-72
2022/05/27 05:34:03;;;;;;;2.05;0.50;;;;;;;26.28;50.16;100827.38;5051193;28;20116;-69
2022/05/27 05:36:34;;;;;;;1.58;0.65;;;;;;;26.26;50.16;100819.63;5051082;28;20046;-71
2022/05/27 05:39:01;;;;;;;2.90;0.63;;;;;;;26.27;50.36;100820.44;5051156;28;20021;-73
2022/05/27 05:41:32;;;;;;;2.08;0.88;;;;;;;26.25;50.23;100825.19;5051630;28;20037;-72
2022/05/27 05:43:58;;;;;;;1.88;0.50;;;;;;;26.26;50.38;100824.16;5050921;28;20107;-73
2022/05/27 05:46:26;;;;;;;1.15;0.55;;;;;;;26.26;50.38;100838.31;5051366;28;20108;-73
2022/05/27 05:48:52;;;;;;;1.90;0.70;;;;;;;26.25;50.29;100830.53;5050788;28;20033;-72
2022/05/27 05:51:19;;;;;;;1.75;0.65;;;;;;;26.26;50.44;100832.16;5050508;28;20043;-72
2022/05/27 05:53:44;;;;;;;3.83;1.10;;;;;;;26.27;50.44;100841.78;5039171;28;20021;-72
2022/05/27 05:56:10;;;;;;;2.85;0.63;;;;;;;26.27;50.32;100839.13;5035086;28;20091;-71
2022/05/27 05:58:36;;;;;;;2.20;0.77;;;;;;;26.28;50.33;100835.41;5034020;28;20062;-75
2022/05/27 06:01:01;;;;;;;1.40;0.60;;;;;;;26.28;50.36;100840.75;5026720;28;20026;-74
2022/05/27 06:03:27;;;;;;;3.28;0.70;;;;;;;26.27;50.51;100833.78;5028165;28;20028;-73
2022/05/27 06:05:53;;;;;;;1.73;0.50;;;;;;;26.28;50.37;100830.06;5026111;28;20507;-71
2022/05/27 06:08:19;;;;;;;2.53;0.55;;;;;;;26.29;50.44;100837.03;5030287;28;20037;-74
2022/05/27 06:10:45;;;;;;;1.27;0.45;;;;;;;26.30;50.37;100835.97;5031697;28;20025;-72
2022/05/27 06:13:11;;;;;;;1.17;0.50;;;;;;;26.30;50.50;100835.97;5025820;28;22537;-73
2022/05/27 06:15:37;;;;;;;4.53;0.65;;;;;;;26.30;50.58;100825.28;5045793;28;20552;-72
2022/05/27 06:18:04;;;;;;;1.35;0.43;;;;;;;26.31;50.51;100833.09;5048316;28;20086;-72
2022/05/27 06:20:29;;;;;;;1.10;0.70;;;;;;;26.31;50.51;100830.44;5050303;28;20037;-72
2022/05/27 06:22:55;;;;;;;1.63;0.57;;;;;;;26.31;50.42;100838.44;5048938;28;20435;-74
2022/05/27 06:25:20;;;;;;;2.78;0.63;;;;;;;26.32;50.59;100834.72;5045711;28;20119;-72
2022/05/27 06:27:46;;;;;;;3.13;0.75;;;;;;;26.32;50.47;100834.72;5047929;28;20493;-72
2022/05/27 06:35:42;;;;;;;4.32;1.00;;;;;;;26.32;50.69;100839.25;5039698;28;20051;-74
2022/05/27 06:38:08;;;;;;;2.63;0.90;;;;;;;26.33;50.78;100840.88;5049189;28;20041;-72
2022/05/27 06:40:34;;;;;;;3.80;0.88;;;;;;;26.33;50.84;100831.00;5057000;28;20039;-72
2022/05/27 06:42:59;;;;;;;1.65;0.85;;;;;;;26.34;50.83;100826.47;5065269;28;20392;-73
2022/05/27 06:45:25;;;;;;;4.80;0.80;;;;;;;26.33;50.91;100822.19;5045207;28;20024;-71
2022/05/27 06:47:51;;;;;;;3.83;0.98;;;;;;;26.31;51.04;100818.94;5048429;28;20058;-74
2022/05/27 06:50:16;;;;;;;2.60;1.10;;;;;;;26.32;51.56;100825.91;5046364;28;20068;-73
2022/05/27 06:52:42;;;;;;;2.97;0.90;;;;;;;26.32;51.25;100823.22;5047885;28;20029;-75
2022/05/27 06:55:14;;;;;;;2.85;0.70;;;;;;;26.32;51.23;100823.22;5044982;28;20446;-74
2022/05/27 06:57:40;;;;;;;18.50;12.05;;;;;;;26.39;53.01;100826.56;5047554;28;20188;-72
2022/05/27 07:00:09;;;;;;;15.98;8.77;;;;;;;26.42;52.57;100820.75;5044607;28;20112;-74
2022/05/27 07:02:34;;;;;;;11.27;3.78;;;;;;;26.41;52.44;100808.44;5049238;28;20039;-75
2022/05/27 07:05:00;;;;;;;6.90;2.15;;;;;;;26.39;52.44;100806.00;5046027;28;20024;-74
2022/05/27 07:07:30;;;;;;;6.82;1.67;;;;;;;26.40;52.90;100806.81;5048354;28;20131;-74
2022/05/27 07:09:55;;;;;;;5.05;1.50;;;;;;;26.40;52.60;100802.28;5052305;28;20071;-72
2022/05/27 07:12:21;;;;;;;4.03;1.05;;;;;;;26.41;52.52;100805.75;5051279;28;20068;-71
2022/05/27 07:14:46;;;;;;;6.70;1.20;;;;;;;26.40;52.32;100809.47;5049696;28;20493;-73
2022/05/27 07:17:12;;;;;;;3.60;0.88;;;;;;;26.41;52.25;100803.91;5043910;28;20440;-75
2022/05/27 07:19:39;;;;;;;2.15;0.80;;;;;;;26.42;52.57;100812.72;5069646;28;20402;-73
2022/05/27 07:22:09;;;;;;;10.88;2.03;;;;;;;26.42;52.40;100804.72;5067975;28;20059;-74
2022/05/27 07:24:36;;;;;;;1.98;0.80;;;;;;;26.40;52.22;100798.81;5061994;28;20115;-78
2022/05/27 07:27:02;;;;;;;3.58;0.90;;;;;;;26.40;52.39;100804.16;5064495;28;20079;-74
2022/05/27 07:29:28;;;;;;;7.82;1.38;;;;;;;26.40;52.41;100799.59;5067620;28;20115;-73
2022/05/27 07:31:53;;;;;;;8.32;1.13;;;;;;;26.39;52.30;100791.84;5069032;28;20112;-73
2022/05/27 07:34:19;;;;;;;10.35;1.42;;;;;;;26.35;52.03;100786.16;5049509;28;20325;-73
2022/05/27 07:36:44;;;;;;;6.88;1.55;;;;;;;26.28;52.15;100782.00;5048809;28;20439;-77
2022/05/27 07:39:10;;;;;;;5.22;1.08;;;;;;;26.25;52.19;100785.13;5047712;28;20082;-75
2022/05/27 07:41:37;;;;;;;3.80;0.82;;;;;;;26.19;52.08;100775.41;5049420;28;20025;-74
2022/05/27 07:44:04;;;;;;;4.97;1.42;;;;;;;26.16;52.12;100771.34;5058805;28;20113;-74
2022/05/27 07:46:31;;;;;;;2.83;1.00;;;;;;;26.17;52.26;100770.31;5049493;28;20024;-74
2022/05/27 07:48:57;;;;;;;1.30;0.85;;;;;;;26.18;52.22;100766.59;5063874;28;20033;-71
2022/05/27 07:51:23;;;;;;;1.90;0.93;;;;;;;26.18;52.35;100766.59;5065237;28;20021;-74
2022/05/27 07:53:49;;;;;;;3.10;0.93;;;;;;;26.21;52.32;100765.31;5062615;28;20035;-72
2022/05/27 07:56:14;;;;;;;4.05;0.90;;;;;;;26.19;52.59;100762.88;5050831;28;20043;-75
2022/05/27 07:58:40;;;;;;;3.90;1.10;;;;;;;26.20;52.58;100767.16;5068709;28;20021;-74
2022/05/27 08:01:06;;;;;;;7.43;0.90;;;;;;;26.18;52.49;100766.59;5068781;28;20067;-71
2022/05/27 08:03:32;;;;;;;3.38;1.10;;;;;;;26.19;52.29;100767.41;5069257;28;20040;-75
2022/05/27 08:05:59;;;;;;;5.45;1.02;;;;;;;26.21;52.23;100762.63;5053162;28;20048;-73
2022/05/27 08:08:25;;;;;;;5.30;1.00;;;;;;;26.20;51.84;100759.16;5062946;28;20448;-76
2022/05/27 08:10:51;;;;;;;5.75;1.52;;;;;;;26.19;51.54;100754.06;5058720;28;20040;-71
2022/05/27 08:13:16;;;;;;;4.65;1.17;;;;;;;26.18;51.58;100757.78;5067899;28;20036;-75
2022/05/27 08:15:42;;;;;;;6.85;1.42;;;;;;;26.15;51.74;100752.91;5063512;28;20032;-74
2022/05/27 08:18:08;;;;;;;3.80;1.05;;;;;;;26.10;51.81;100754.44;5047003;28;20056;-74
2022/05/27 08:20:37;;;;;;;3.42;0.98;;;;;;;26.11;51.78;100766.72;5068661;28;20423;-72
2022/05/27 08:23:03;;;;;;;4.88;1.20;;;;;;;26.13;51.83;100767.31;5069090;28;20024;-71
2022/05/27 08:25:29;;;;;;;2.58;0.80;;;;;;;26.15;51.64;100766.25;5069915;28;20021;-78
2022/05/27 08:27:55;;;;;;;4.68;1.30;;;;;;;26.17;51.27;100774.84;5069922;28;20024;-75
2022/05/27 08:30:25;;;;;;;5.18;1.10;;;;;;;26.17;50.77;100770.31;5051612;28;20036;-73
2022/05/27 08:32:51;;;;;;;3.33;0.80;;;;;;;26.17;50.39;100769.50;5030057;28;20129;-73
2022/05/27 08:38:07;;;;;;;3.67;0.82;;;;;;;26.11;50.00;100761.41;5044125;28;20063;-75
2022/05/27 08:40:54;;;;;;;3.47;1.20;;;;;;;26.08;49.83;100761.88;5074681;28;20409;-76
2022/05/27 08:43:44;;;;;;;5.05;1.48;;;;;;;26.11;50.00;100765.91;5074922;28;20032;-71
2022/05/27 08:46:51;;;;;;;3.92;0.90;;;;;;;26.12;50.68;100768.34;5073577;28;20051;-75
2022/05/27 08:49:30;;;;;;;4.25;0.93;;;;;;;26.14;50.72;100760.09;5032155;28;20037;-73
2022/05/27 08:52:08;;;;;;;2.83;0.75;;;;;;;26.17;50.54;100759.63;5055217;28;20116;-74
2022/05/27 08:54:39;;;;;;;3.42;1.10;;;;;;;26.17;50.54;100754.28;5070090;28;20032;-74
2022/05/27 09:00:05;;;;;;;4.85;1.35;;;;;;;26.11;49.41;100756.06;5059727;28;20085;-75
2022/05/27 09:02:39;;;;;;;4.57;1.35;;;;;;;26.11;49.63;100740.03;5042621;28;20138;-72
2022/05/27 09:05:05;;;;;;;3.88;1.20;;;;;;;26.13;49.54;100751.28;5029162;28;20158;-72
2022/05/27 09:07:46;;;;;;;2.28;0.98;;;;;;;26.14;49.38;100741.41;5029057;28;20125;-74
2022/05/27 09:10:57;;;;;;;2.80;0.80;;;;;;;26.16;49.46;100730.50;5049244;28;20086;-77
2022/05/27 09:13:36;;;;;;;3.67;1.50;;;;;;;26.18;49.40;100733.72;4982857;28;20086;-73
2022/05/27 09:16:06;;;;;;;3.60;0.70;;;;;;;26.21;49.69;100735.94;4989626;28;20050;-73
2022/05/27 09:18:32;;;;;;;4.97;1.00;;;;;;;26.22;49.54;100737.53;4964502;28;20055;-74
2022/05/27 09:21:40;;;;;;;3.13;1.00;;;;;;;26.23;49.79;100742.66;4968156;28;20031;-73
2022/05/27 09:24:08;;;;;;;4.85;1.23;;;;;;;26.26;49.82;100730.69;4967025;28;20050;-75
2022/05/27 09:27:01;;;;;;;6.05;1.45;;;;;;;26.25;49.68;100735.22;4989849;28;20175;-78
2022/05/27 09:29:47;;;;;;;4.18;1.65;;;;;;;26.29;49.71;100730.19;4978533;28;20043;-74
2022/05/27 09:32:25;;;;;;;8.10;1.58;;;;;;;26.29;49.86;100731.00;4967177;28;20043;-74
2022/05/27 09:34:53;;;;;;;5.13;1.52;;;;;;;26.30;49.79;100732.63;4970858;28;20046;-75
2022/05/27 09:37:34;;;;;;;3.72;1.10;;;;;;;26.29;49.70;100736.34;4970615;28;20470;-75
2022/05/27 09:40:09;;;;;;;2.28;1.13;;;;;;;26.30;49.92;100732.63;4968626;28;20050;-71
2022/05/27 09:42:55;;;;;;;5.53;1.77;;;;;;;26.30;49.51;100721.13;4970699;28;20042;-73
2022/05/27 09:45:21;;;;;;;3.85;0.90;;;;;;;26.30;49.63;100727.28;4970618;28;20074;-73
2022/05/27 09:47:47;;;;;;;5.55;1.13;;;;;;;26.32;49.52;100719.88;4968973;28;20042;-72
2022/05/27 09:50:38;;;;;;;4.63;1.08;;;;;;;26.33;49.51;100715.34;5016063;28;20091;-74
2022/05/27 09:53:04;;;;;;;4.53;1.27;;;;;;;26.34;49.65;100719.63;5048725;28;20485;-75
2022/05/27 09:55:41;;;;;;;3.75;1.48;;;;;;;26.32;49.81;100705.69;5046064;28;20029;-71
2022/05/27 09:58:07;;;;;;;5.15;1.30;;;;;;;26.34;49.78;100700.94;5049780;28;20048;-73
2022/05/27 10:00:44;;;;;;;5.55;1.42;;;;;;;26.34;49.93;100707.09;5046901;28;20040;-73
2022/05/27 10:03:27;;;;;;;6.05;1.38;;;;;;;26.34;50.11;100706.28;5051088;28;20413;-74
2022/05/27 10:06:00;;;;;;;7.75;1.88;;;;;;;26.36;50.48;100702.31;5048019;28;20045;-70
2022/05/27 10:08:34;;;;;;;4.82;1.25;;;;;;;26.38;50.05;100702.06;5046125;28;20025;-73
2022/05/27 10:11:21;;;;;;;5.00;1.08;;;;;;;26.39;49.81;100691.16;5049564;28;20063;-74
2022/05/27 10:13:49;;;;;;;5.28;0.98;;;;;;;26.39;49.83;100685.78;5048451;28;20033;-74
2022/05/27 10:16:24;;;;;;;3.80;1.00;;;;;;;26.38;49.65;100686.84;5049628;28;20044;-72
2022/05/27 10:19:05;;;;;;;5.32;1.00;;;;;;;26.38;49.43;100681.50;5058385;28;20115;-74
2022/05/27 10:21:31;;;;;;;4.45;1.52;;;;;;;26.38;49.37;100680.69;5065197;28;20047;-73
2022/05/27 10:24:15;;;;;;;3.60;1.30;;;;;;;26.38;49.00;100681.50;5046599;28;20116;-73
2022/05/27 10:26:41;;;;;;;2.20;0.93;;;;;;;26.40;49.14;100670.59;5048550;28;20446;-75
2022/05/27 10:29:08;;;;;;;5.13;1.52;;;;;;;26.41;48.81;100664.19;5050217;28;20252;-73
2022/05/27 10:31:35;;;;;;;4.90;1.50;;;;;;;26.44;48.59;100663.69;5050056;28;20343;-72
2022/05/27 10:34:00;;;;;;;9.32;1.50;;;;;;;26.44;48.33;100658.34;5048108;28;20034;-74
2022/05/27 10:36:41;;;;;;;5.88;1.70;;;;;;;26.46;48.42;100658.13;5052762;28;20097;-75
2022/05/27 10:39:16;;;;;;;5.03;0.98;;;;;;;26.46;48.26;100650.91;5030148;28;20083;-72
2022/05/27 10:41:54;;;;;;;;;;;;;;;26.39;48.32;100650.25;5052489;28;20392;-71
2022/05/27 10:44:45;;;;;;;4.05;1.40;;;;;;;26.41;48.64;100648.97;5050147;28;19965;-74
2022/05/27 10:47:37;;;;;;;4.63;1.70;;;;;;;26.42;48.46;100649.78;5065214;28;20094;-71
2022/05/27 10:50:24;;;;;;;3.45;1.02;;;;;;;26.44;48.36;100647.66;5070248;28;20034;-74
2022/05/27 10:53:13;;;;;;;5.50;1.30;;;;;;;26.47;48.48;100638.38;5069766;28;20366;-72
2022/05/27 10:56:11;;;;;;;7.07;1.23;;;;;;;26.49;48.66;100650.38;5067547;28;20536;-73
2022/05/27 11:04:29;;;;;;;4.25;1.40;;;;;;;26.46;48.71;100637.56;5069988;28;20116;-74
2022/05/27 11:07:03;;;;;;;4.97;1.02;;;;;;;26.46;48.70;100634.06;5049977;28;20049;-72
2022/05/27 11:10:07;;;;;;;4.70;1.40;;;;;;;26.44;48.42;100629.78;5049716;28;20025;-76
2022/05/27 11:15:51;;;;;;;4.53;1.40;;;;;;;26.46;48.49;100613.50;5005788;28;20044;-71
2022/05/27 11:18:45;;;;;;;4.53;1.13;;;;;;;26.47;48.49;100614.31;5049275;28;20055;-72
2022/05/27 11:21:28;;;;;;;2.38;0.93;;;;;;;26.46;48.52;100602.81;5049373;28;20312;-74
2022/05/27 11:24:02;;;;;;;3.35;1.00;;;;;;;26.48;48.45;100597.19;5049775;28;20043;-75
2022/05/27 11:26:55;;;;;;;5.30;1.40;;;;;;;26.47;48.34;100600.97;5047686;28;20037;-75
2022/05/27 11:29:35;;;;;;;5.70;1.52;;;;;;;26.48;48.32;100592.66;5051169;28;20139;-75
2022/05/27 11:32:19;;;;;;;4.55;1.23;;;;;;;26.47;48.07;100585.72;5069603;28;20182;-76
2022/05/27 11:35:22;;;;;;;3.58;0.90;;;;;;;26.47;48.12;100596.41;5069215;28;20107;-74
2022/05/27 11:38:06;;;;;;;2.55;1.10;;;;;;;26.47;47.89;100582.25;5048602;28;20536;-72
2022/05/27 11:40:41;;;;;;;3.80;1.25;;;;;;;26.49;48.03;100578.25;5049184;28;20379;-76
2022/05/27 11:43:18;;;;;;;5.28;1.20;;;;;;;26.49;47.81;100564.91;5049172;28;20493;-73
2022/05/27 11:46:14;;;;;;;4.53;1.50;;;;;;;26.55;47.65;100560.44;5049263;28;20059;-74
2022/05/27 11:48:58;;;;;;;4.68;1.38;;;;;;;26.59;47.48;100562.38;5046940;28;20090;-72
2022/05/27 11:52:01;;;;;;;6.65;0.93;;;;;;;26.61;47.13;100557.59;5029150;28;20037;-71
2022/05/27 11:54:48;;;;;;;3.10;1.02;;;;;;;26.66;46.81;100556.84;5029196;28;20134;-72
2022/05/27 11:57:16;;;;;;;6.43;1.40;;;;;;;26.67;46.60;100553.13;5042661;28;20044;-76
2022/05/27 12:00:10;;;;;;;2.92;1.30;;;;;;;26.68;46.79;100549.38;5049496;28;20163;-73
2022/05/27 12:02:54;;;;;;;5.00;1.55;;;;;;;26.68;46.60;100550.19;5048625;28;20084;-71
2022/05/27 12:05:27;;;;;;;6.13;1.58;;;;;;;26.69;46.76;100549.13;5048636;28;20063;-71
2022/05/27 12:08:00;;;;;;;4.35;1.08;;;;;;;26.73;46.92;100549.44;5046753;28;20021;-73
2022/05/27 12:10:40;;;;;;;4.85;1.38;;;;;;;26.76;46.61;100549.75;5048702;28;20028;-72
2022/05/27 12:13:10;;;;;;;4.55;1.20;;;;;;;26.76;46.75;100546.28;5067642;28;20055;-73